• Join FlightAware (Why Join?)
  • Login
  • US Flag 
11:35AM EST


 

Airport Tracker/Info


-or-


 

Live Flight TrackerFlight Track Log ✈ AMF5135 ✈ 17-May-2013 ✈ KDRT - KDFW

Flight Track Log - Related Links

Times and Time Zones

All times are in EDT time to prevent confusion due to time zone crossing. See the AMF5135 flight status page for this flight to view local times or setup timezone preferences in your user account.

Time Position Orientation Groundspeed Altitude Reporting Facility
EDT Latitude Longitude Course Direction KTS MPH feet Rate Location/Type
10:24AM 29.3558 -100.8644 45° Northeast 126 145 4,000  Level Houston Center
10:25AM 29.3700 -100.7900 78° East 169 194 4,000  Level Houston Center
10:26AM 29.4089 -100.7297 53° Northeast 212 244 4,000 480 Level Houston Center
10:27AM 29.4594 -100.6872 36° Northeast 225 259 5,000 960 Climbing Houston Center
10:28AM 29.6299 -100.6140 44° Northeast  Level FlightAware Approximate
10:28AM 29.5056 -100.6525 33° Northeast 208 239 6,100  Level Houston Center
10:29AM 29.6743 -100.5638 45° Northeast  Level FlightAware Approximate
10:29AM 29.5475 -100.6150 38° Northeast 195 224 7,300  Level Houston Center
10:30AM 29.5881 -100.5747 41° Northeast 194 223 8,400 780 Climbing Houston Center
10:31AM 29.6378 -100.5281 39° Northeast 191 220 9,000 240 Climbing Houston Center
10:32AM 29.6858 -100.4839 39° Northeast 214 246 9,000  Level Houston Center
10:33AM 29.7328 -100.4433 37° Northeast 213 245 9,000  Level Houston Center
10:34AM 29.7764 -100.3992 41° Northeast 210 242 9,000  Level Houston Center
10:35AM 29.8219 -100.3569 39° Northeast 210 242 9,000  Level Houston Center
10:36AM 29.8778 -100.3083 37° Northeast 210 242 9,000  Level Houston Center
10:37AM 29.9231 -100.2667 39° Northeast 210 242 9,000  Level Houston Center
10:38AM 29.9678 -100.2253 39° Northeast 210 242 9,100  Climbing Houston Center
10:39AM 30.0133 -100.1850 37° Northeast 210 242 9,100  Level Houston Center
10:40AM 30.0578 -100.1433 39° Northeast 209 241 9,100  Level Houston Center
10:41AM 30.1164 -100.1025 31° Northeast 209 241 9,100  Level Houston Center
10:42AM 30.1683 -100.0711 28° Northeast 210 242 9,100  Level Houston Center
10:44AM 30.2094 -100.0278 42° Northeast 207 238 9,100  Level Houston Center
10:45AM 30.2425 -99.9728 55° Northeast 207 238 9,100  Level Houston Center
10:46AM 30.2761 -99.9172 55° Northeast 209 241 9,100  Level Houston Center
10:47AM 30.3167 -99.8517 54° Northeast 209 241 9,100  Level Houston Center
10:48AM 30.3503 -99.7967 55° Northeast 209 241 9,100  Level Houston Center
10:49AM 30.3836 -99.7400 56° Northeast 211 243 9,100  Level Houston Center
10:50AM 30.4169 -99.6844 55° Northeast 211 243 9,100  Level Houston Center
10:51AM 30.4497 -99.6278 56° Northeast 212 244 9,100  Level Houston Center
10:52AM 30.4861 -99.5569 59° Northeast 213 245 9,100  Level Houston Center
10:53AM 30.5156 -99.4978 60° Northeast 213 245 9,100  Level Houston Center
10:54AM 30.5472 -99.4389 58° Northeast 214 246 9,100  Level Houston Center
10:55AM 30.5775 -99.3808 59° Northeast 213 245 9,100  Level Houston Center
10:56AM 30.6086 -99.3217 59° Northeast 214 246 9,100  Level Houston Center
10:57AM 30.6383 -99.2611 60° Northeast 216 249 9,100  Level Houston Center
10:58AM 30.6767 -99.1908 58° Northeast 216 249 9,100  Level Houston Center
10:59AM 30.7064 -99.1308 60° Northeast 213 245 9,100  Level Houston Center
11:00AM 30.7364 -99.0694 60° Northeast 215 247 9,100  Level Houston Center
11:01AM 30.7689 -99.0122 57° Northeast 211 243 9,100  Level Houston Center
11:02AM 30.7972 -98.9558 60° Northeast 203 234 9,100 -60 Level Houston Center
11:03AM 30.8258 -98.8981 60° Northeast 204 235 9,000 -60 Descending Houston Center
11:04AM 30.8572 -98.8419 57° Northeast 204 235 9,000  Level Houston Center
11:05AM 30.8897 -98.7747 61° Northeast 203 234 9,000 -60 Level Houston Center
11:06AM 30.9178 -98.7164 61° Northeast 205 236 8,900 -60 Descending Houston Center
11:07AM 30.9458 -98.6583 61° Northeast 204 235 8,900  Level Houston Center
11:08AM 30.9753 -98.6019 59° Northeast 203 234 9,000  Climbing Houston Center
11:09AM 31.0014 -98.5433 63° Northeast 201 231 9,000  Level Houston Center
11:10AM 31.0308 -98.4856 59° Northeast 203 234 9,100  Climbing Houston Center
11:11AM 31.0794 -98.4494 32° Northeast 197 227 9,100 -60 Level Houston Center
11:13AM 31.1369 -98.4197 24° Northeast 201 231 9,000  Descending Houston Center
11:13AM 31.1531 -98.4086 31° Northeast 197 227 9,100  Climbing Fort Worth Center
11:14AM 31.2053 -98.3800 25° Northeast 198 228 9,000  Descending Fort Worth Center
11:15AM 31.2536 -98.3561 23° Northeast 198 228 9,100  Climbing Fort Worth Center
11:16AM 31.3058 -98.3250 27° Northeast 199 229 9,100 -60 Level Fort Worth Center
11:17AM 31.3522 -98.2989 26° Northeast 197 227 9,000  Descending Fort Worth Center
11:18AM 31.4044 -98.2725 23° Northeast 196 226 9,100  Climbing Fort Worth Center
11:19AM 31.4589 -98.2389 28° Northeast 220 253 9,100 -60 Level Fort Worth Center
11:20AM 31.5092 -98.2103 26° Northeast 206 237 9,000  Descending Fort Worth Center
11:21AM 31.5553 -98.1861 24° Northeast 194 223 9,100  Climbing Fort Worth Center
11:22AM 31.6036 -98.1572 27° Northeast 193 222 9,100  Level Fort Worth Center
11:23AM 31.6581 -98.1283 24° Northeast 193 222 9,100  Level Fort Worth Center
11:24AM 31.7042 -98.1019 26° Northeast 198 228 9,100  Level Fort Worth Center
11:25AM 31.7544 -98.0731 26° Northeast 198 228 9,100  Level Fort Worth Center
11:26AM 31.8047 -98.0442 26° Northeast 198 228 9,100  Level Fort Worth Center
11:27AM 31.8611 -98.0175 22° Northeast 193 222 9,100  Level Fort Worth Center
11:28AM 31.9092 -97.9958 21° North 188 216 9,100  Level Fort Worth Center
11:29AM 31.9511 -97.9764 21° North 188 216 9,100  Level Fort Worth Center
11:30AM 32.0117 -97.9500 20° North 188 216 9,100  Level Fort Worth Center
11:31AM 32.0619 -97.9283 20° North 188 216 9,100  Level Fort Worth Center
11:32AM 32.1100 -97.9064 21° North 188 216 9,100  Level Fort Worth Center
11:33AM 32.1644 -97.8747 26° Northeast 188 216 9,100  Level Fort Worth Center
11:34AM 32.2022 -97.8333 43° Northeast 199 229 9,100 -60 Level Fort Worth Center
11:35AM 32.2461 -97.7769 47° Northeast 204 235 9,000 -60 Descending Fort Worth Center
11:36AM 32.2861 -97.7303 45° Northeast 204 235 9,000  Level Fort Worth Center
11:37AM 32.3342 -97.6839 39° Northeast 204 235 9,000 -240 Level Fort Worth Center
11:38AM 32.3758 -97.6422 40° Northeast 211 243 8,600 -660 Descending Fort Worth Center
11:39AM 32.4303 -97.5881 40° Northeast 211 243 7,700 -900 Descending Fort Worth Center
11:40AM 32.4722 -97.5439 42° Northeast 216 249 6,900 -840 Descending Fort Worth Center
11:41AM 32.5244 -97.4872 42° Northeast 216 249 6,100 -480 Descending Fort Worth Center
11:42AM 32.5642 -97.4431 43° Northeast 216 249 6,000 -60 Descending Fort Worth Center
11:43AM 32.6183 -97.4061 30° Northeast 203 234 6,000 -60 Level Fort Worth Center
11:44AM 32.6600 -97.3689 37° Northeast 202 232 5,900 -420 Descending Fort Worth Center
11:45AM 32.7164 -97.3244 34° Northeast 212 244 5,200 -480 Descending Fort Worth Center
11:46AM 32.7644 -97.2947 27° Northeast 217 250 5,000 -120 Descending Fort Worth Center
11:47AM 32.8250 -97.2675 21° North 206 237 5,000  Level Fort Worth Center
11:48AM 32.8731 -97.2453 21° North 206 237 5,000  Level Fort Worth Center
11:49AM 32.9333 -97.2178 21° North 206 237 5,000 -180 Level Fort Worth Center
11:51AM 33.0500 -97.1667 20° North 212 244 4,500 -540 Descending Dallas / Fort Worth TRACON
11:52AM 33.1000 -97.1333 29° Northeast 217 250 3,400 -780 Descending Dallas / Fort Worth TRACON
11:53AM 33.1333 -97.1000 40° Northeast 180 207 3,000 -240 Descending Dallas / Fort Worth TRACON
11:54AM 33.1000 -97.0500 129° Southeast 171 197 3,000 -360 Level Dallas / Fort Worth TRACON
11:55AM 33.0500 -97.0500 180° South 162 186 2,300 -720 Descending Dallas / Fort Worth TRACON